sensor_id;sensor_type;location;lat;lon;timestamp;temperature;humidity
46590;DHT22;32313;48.722;9.362;2023-04-03T00:01:16;2.50;99.90
46590;DHT22;32313;48.722;9.362;2023-04-03T00:03:42;2.40;99.90
46590;DHT22;32313;48.722;9.362;2023-04-03T00:06:08;2.30;99.90
46590;DHT22;32313;48.722;9.362;2023-04-03T00:08:36;2.20;99.90
46590;DHT22;32313;48.722;9.362;2023-04-03T00:11:02;2.20;99.90
46590;DHT22;32313;48.722;9.362;2023-04-03T00:13:29;2.10;99.90
46590;DHT22;32313;48.722;9.362;2023-04-03T00:15:54;2.10;99.90
46590;DHT22;32313;48.722;9.362;2023-04-03T00:18:20;2.10;99.90
46590;DHT22;32313;48.722;9.362;2023-04-03T00:20:47;2.10;99.90
46590;DHT22;32313;48.722;9.362;2023-04-03T00:23:12;2.10;99.90
46590;DHT22;32313;48.722;9.362;2023-04-03T00:25:38;2.00;99.90
46590;DHT22;32313;48.722;9.362;2023-04-03T00:28:04;2.00;99.90
46590;DHT22;32313;48.722;9.362;2023-04-03T00:30:30;2.00;99.90
46590;DHT22;32313;48.722;9.362;2023-04-03T00:32:56;1.90;99.90
46590;DHT22;32313;48.722;9.362;2023-04-03T00:35:23;1.90;99.90
46590;DHT22;32313;48.722;9.362;2023-04-03T00:37:51;1.80;99.90
46590;DHT22;32313;48.722;9.362;2023-04-03T00:40:18;1.80;99.90
46590;DHT22;32313;48.722;9.362;2023-04-03T00:42:46;1.70;99.90
46590;DHT22;32313;48.722;9.362;2023-04-03T00:45:33;1.70;99.90
46590;DHT22;32313;48.722;9.362;2023-04-03T00:48:00;1.70;99.90
46590;DHT22;32313;48.722;9.362;2023-04-03T00:50:28;1.60;99.90
46590;DHT22;32313;48.722;9.362;2023-04-03T00:52:55;1.60;99.90
46590;DHT22;32313;48.722;9.362;2023-04-03T00:55:22;1.70;99.90
46590;DHT22;32313;48.722;9.362;2023-04-03T00:57:49;1.80;99.90
46590;DHT22;32313;48.722;9.362;2023-04-03T01:00:19;1.80;99.90
46590;DHT22;32313;48.722;9.362;2023-04-03T01:02:45;1.90;99.90
46590;DHT22;32313;48.722;9.362;2023-04-03T01:05:13;1.90;99.90
46590;DHT22;32313;48.722;9.362;2023-04-03T01:07:42;1.90;99.90
46590;DHT22;32313;48.722;9.362;2023-04-03T01:10:10;1.90;99.90
46590;DHT22;32313;48.722;9.362;2023-04-03T01:12:41;1.90;99.90
46590;DHT22;32313;48.722;9.362;2023-04-03T01:15:09;1.90;99.90
46590;DHT22;32313;48.722;9.362;2023-04-03T01:17:48;2.00;99.90
46590;DHT22;32313;48.722;9.362;2023-04-03T01:25:44;2.00;99.90
46590;DHT22;32313;48.722;9.362;2023-04-03T01:28:32;2.00;99.90
46590;DHT22;32313;48.722;9.362;2023-04-03T01:33:41;2.00;99.90
46590;DHT22;32313;48.722;9.362;2023-04-03T01:36:08;2.00;99.90
46590;DHT22;32313;48.722;9.362;2023-04-03T01:38:34;2.00;99.90
46590;DHT22;32313;48.722;9.362;2023-04-03T01:41:00;2.00;99.90
46590;DHT22;32313;48.722;9.362;2023-04-03T01:43:25;2.00;99.90
46590;DHT22;32313;48.722;9.362;2023-04-03T01:45:51;2.00;99.90
46590;DHT22;32313;48.722;9.362;2023-04-03T01:48:18;2.00;99.90
46590;DHT22;32313;48.722;9.362;2023-04-03T01:50:44;2.00;99.90
46590;DHT22;32313;48.722;9.362;2023-04-03T01:53:09;2.00;99.90
46590;DHT22;32313;48.722;9.362;2023-04-03T01:55:35;2.00;99.90
46590;DHT22;32313;48.722;9.362;2023-04-03T01:58:01;2.00;99.90
46590;DHT22;32313;48.722;9.362;2023-04-03T02:00:27;2.00;99.90
46590;DHT22;32313;48.722;9.362;2023-04-03T02:02:52;2.00;99.90
46590;DHT22;32313;48.722;9.362;2023-04-03T02:05:18;2.00;99.90
46590;DHT22;32313;48.722;9.362;2023-04-03T02:07:44;2.00;99.90
46590;DHT22;32313;48.722;9.362;2023-04-03T02:10:10;2.00;99.90
46590;DHT22;32313;48.722;9.362;2023-04-03T02:12:36;2.00;99.90
46590;DHT22;32313;48.722;9.362;2023-04-03T02:15:02;2.00;99.90
46590;DHT22;32313;48.722;9.362;2023-04-03T02:17:28;2.10;99.90
46590;DHT22;32313;48.722;9.362;2023-04-03T02:19:54;2.10;99.90
46590;DHT22;32313;48.722;9.362;2023-04-03T02:22:20;2.10;99.90
46590;DHT22;32313;48.722;9.362;2023-04-03T02:24:45;2.20;99.90
46590;DHT22;32313;48.722;9.362;2023-04-03T02:27:11;2.20;99.90
46590;DHT22;32313;48.722;9.362;2023-04-03T02:29:37;2.20;99.90
46590;DHT22;32313;48.722;9.362;2023-04-03T02:32:04;2.20;99.90
46590;DHT22;32313;48.722;9.362;2023-04-03T02:34:30;2.20;99.90
46590;DHT22;32313;48.722;9.362;2023-04-03T02:36:58;2.30;99.90
46590;DHT22;32313;48.722;9.362;2023-04-03T02:39:24;2.30;99.90
46590;DHT22;32313;48.722;9.362;2023-04-03T02:41:50;2.30;99.90
46590;DHT22;32313;48.722;9.362;2023-04-03T02:44:21;2.30;99.90
46590;DHT22;32313;48.722;9.362;2023-04-03T02:46:49;2.30;99.90
46590;DHT22;32313;48.722;9.362;2023-04-03T02:49:16;2.40;99.90
46590;DHT22;32313;48.722;9.362;2023-04-03T02:51:41;2.40;99.90
46590;DHT22;32313;48.722;9.362;2023-04-03T02:54:08;2.40;99.90
46590;DHT22;32313;48.722;9.362;2023-04-03T02:56:36;2.40;99.90
46590;DHT22;32313;48.722;9.362;2023-04-03T02:59:02;2.50;99.90
46590;DHT22;32313;48.722;9.362;2023-04-03T03:01:28;2.50;99.90
46590;DHT22;32313;48.722;9.362;2023-04-03T03:04:00;2.50;99.90
46590;DHT22;32313;48.722;9.362;2023-04-03T03:06:26;2.50;99.90
46590;DHT22;32313;48.722;9.362;2023-04-03T03:08:52;2.60;99.90
46590;DHT22;32313;48.722;9.362;2023-04-03T03:11:18;2.60;99.90
46590;DHT22;32313;48.722;9.362;2023-04-03T03:13:44;2.60;99.90
46590;DHT22;32313;48.722;9.362;2023-04-03T03:16:09;2.60;99.90
46590;DHT22;32313;48.722;9.362;2023-04-03T03:18:36;2.60;99.90
46590;DHT22;32313;48.722;9.362;2023-04-03T03:21:03;2.70;99.90
46590;DHT22;32313;48.722;9.362;2023-04-03T03:23:31;2.70;99.90
46590;DHT22;32313;48.722;9.362;2023-04-03T03:26:03;2.70;99.90
46590;DHT22;32313;48.722;9.362;2023-04-03T03:28:29;2.70;99.90
46590;DHT22;32313;48.722;9.362;2023-04-03T03:30:56;2.60;99.90
46590;DHT22;32313;48.722;9.362;2023-04-03T03:33:22;2.70;99.90
46590;DHT22;32313;48.722;9.362;2023-04-03T03:35:49;2.70;99.90
46590;DHT22;32313;48.722;9.362;2023-04-03T03:38:15;2.70;99.90
46590;DHT22;32313;48.722;9.362;2023-04-03T03:40:41;2.70;99.90
46590;DHT22;32313;48.722;9.362;2023-04-03T03:43:07;2.70;99.90
46590;DHT22;32313;48.722;9.362;2023-04-03T03:45:33;2.70;99.90
46590;DHT22;32313;48.722;9.362;2023-04-03T03:47:58;2.70;99.90
46590;DHT22;32313;48.722;9.362;2023-04-03T03:50:24;2.70;99.90
46590;DHT22;32313;48.722;9.362;2023-04-03T03:52:50;2.70;99.90
46590;DHT22;32313;48.722;9.362;2023-04-03T03:55:17;2.70;99.90
46590;DHT22;32313;48.722;9.362;2023-04-03T03:57:43;2.70;99.90
46590;DHT22;32313;48.722;9.362;2023-04-03T04:00:10;2.70;99.90
46590;DHT22;32313;48.722;9.362;2023-04-03T04:02:46;2.70;99.90
46590;DHT22;32313;48.722;9.362;2023-04-03T04:05:15;2.70;99.90
46590;DHT22;32313;48.722;9.362;2023-04-03T04:07:41;2.70;99.90
46590;DHT22;32313;48.722;9.362;2023-04-03T04:10:07;2.70;99.90
46590;DHT22;32313;48.722;9.362;2023-04-03T04:12:34;2.70;99.90
46590;DHT22;32313;48.722;9.362;2023-04-03T04:15:02;2.70;99.90
46590;DHT22;32313;48.722;9.362;2023-04-03T04:17:28;2.70;99.90
46590;DHT22;32313;48.722;9.362;2023-04-03T04:19:54;2.70;99.90
46590;DHT22;32313;48.722;9.362;2023-04-03T04:22:20;2.70;99.90
46590;DHT22;32313;48.722;9.362;2023-04-03T04:24:45;2.70;99.90
46590;DHT22;32313;48.722;9.362;2023-04-03T04:27:11;2.70;99.90
46590;DHT22;32313;48.722;9.362;2023-04-03T04:29:37;2.70;99.90
46590;DHT22;32313;48.722;9.362;2023-04-03T04:32:05;2.70;99.90
46590;DHT22;32313;48.722;9.362;2023-04-03T04:34:31;2.60;99.90
46590;DHT22;32313;48.722;9.362;2023-04-03T04:36:57;2.60;99.90
46590;DHT22;32313;48.722;9.362;2023-04-03T04:39:26;2.50;99.90
46590;DHT22;32313;48.722;9.362;2023-04-03T04:41:53;2.50;99.90
46590;DHT22;32313;48.722;9.362;2023-04-03T04:44:19;2.40;99.90
46590;DHT22;32313;48.722;9.362;2023-04-03T04:46:46;2.40;99.90
46590;DHT22;32313;48.722;9.362;2023-04-03T04:49:11;2.40;99.90
46590;DHT22;32313;48.722;9.362;2023-04-03T04:51:37;2.40;99.90
46590;DHT22;32313;48.722;9.362;2023-04-03T04:54:03;2.40;99.90
46590;DHT22;32313;48.722;9.362;2023-04-03T04:56:29;2.40;99.90
46590;DHT22;32313;48.722;9.362;2023-04-03T04:58:56;2.50;99.90
46590;DHT22;32313;48.722;9.362;2023-04-03T05:01:22;2.50;99.90
46590;DHT22;32313;48.722;9.362;2023-04-03T05:03:57;2.50;99.90
46590;DHT22;32313;48.722;9.362;2023-04-03T05:06:24;2.50;99.90
46590;DHT22;32313;48.722;9.362;2023-04-03T05:08:50;2.50;99.90
46590;DHT22;32313;48.722;9.362;2023-04-03T05:11:16;2.50;99.90
46590;DHT22;32313;48.722;9.362;2023-04-03T05:13:43;2.50;99.90
46590;DHT22;32313;48.722;9.362;2023-04-03T05:16:09;2.50;99.90
46590;DHT22;32313;48.722;9.362;2023-04-03T05:18:36;2.50;99.90
46590;DHT22;32313;48.722;9.362;2023-04-03T05:21:06;2.50;99.90
46590;DHT22;32313;48.722;9.362;2023-04-03T05:23:32;2.60;99.90
46590;DHT22;32313;48.722;9.362;2023-04-03T05:26:00;2.50;99.90
46590;DHT22;32313;48.722;9.362;2023-04-03T05:28:27;2.50;99.90
46590;DHT22;32313;48.722;9.362;2023-04-03T05:30:57;2.40;99.90
46590;DHT22;32313;48.722;9.362;2023-04-03T05:33:26;2.40;99.90
46590;DHT22;32313;48.722;9.362;2023-04-03T05:35:54;2.40;99.90
46590;DHT22;32313;48.722;9.362;2023-04-03T05:38:24;2.30;99.90
46590;DHT22;32313;48.722;9.362;2023-04-03T05:40:51;2.30;99.90
46590;DHT22;32313;48.722;9.362;2023-04-03T05:43:17;2.20;99.90
46590;DHT22;32313;48.722;9.362;2023-04-03T05:45:43;2.10;99.90
46590;DHT22;32313;48.722;9.362;2023-04-03T05:48:09;2.00;99.90
46590;DHT22;32313;48.722;9.362;2023-04-03T05:50:35;2.00;99.90
46590;DHT22;32313;48.722;9.362;2023-04-03T05:53:02;1.90;99.90
46590;DHT22;32313;48.722;9.362;2023-04-03T05:55:31;1.90;99.90
46590;DHT22;32313;48.722;9.362;2023-04-03T05:57:57;2.00;99.90
46590;DHT22;32313;48.722;9.362;2023-04-03T06:00:23;2.00;99.90
46590;DHT22;32313;48.722;9.362;2023-04-03T06:02:59;2.20;99.90
46590;DHT22;32313;48.722;9.362;2023-04-03T06:05:25;2.40;99.90
46590;DHT22;32313;48.722;9.362;2023-04-03T06:07:50;2.50;99.90
46590;DHT22;32313;48.722;9.362;2023-04-03T06:10:16;2.60;99.90
46590;DHT22;32313;48.722;9.362;2023-04-03T06:12:43;2.70;99.90
46590;DHT22;32313;48.722;9.362;2023-04-03T06:15:10;2.90;99.90
46590;DHT22;32313;48.722;9.362;2023-04-03T06:17:36;3.00;99.90
46590;DHT22;32313;48.722;9.362;2023-04-03T06:20:04;3.10;99.90
46590;DHT22;32313;48.722;9.362;2023-04-03T06:22:30;3.20;99.90
46590;DHT22;32313;48.722;9.362;2023-04-03T06:24:57;3.40;99.90
46590;DHT22;32313;48.722;9.362;2023-04-03T06:27:22;3.40;99.90
46590;DHT22;32313;48.722;9.362;2023-04-03T06:29:48;3.50;99.90
46590;DHT22;32313;48.722;9.362;2023-04-03T06:32:15;3.60;99.90
46590;DHT22;32313;48.722;9.362;2023-04-03T06:34:41;3.60;99.90
46590;DHT22;32313;48.722;9.362;2023-04-03T06:37:21;3.70;99.90
46590;DHT22;32313;48.722;9.362;2023-04-03T06:39:49;3.70;99.90
46590;DHT22;32313;48.722;9.362;2023-04-03T06:42:15;3.80;99.90
46590;DHT22;32313;48.722;9.362;2023-04-03T06:44:51;3.80;99.90
46590;DHT22;32313;48.722;9.362;2023-04-03T06:47:17;3.90;99.90
46590;DHT22;32313;48.722;9.362;2023-04-03T06:49:43;4.00;99.90
46590;DHT22;32313;48.722;9.362;2023-04-03T06:52:09;4.00;99.90
46590;DHT22;32313;48.722;9.362;2023-04-03T06:54:38;4.10;99.90
46590;DHT22;32313;48.722;9.362;2023-04-03T06:57:04;4.20;99.90
46590;DHT22;32313;48.722;9.362;2023-04-03T06:59:29;4.20;99.90
46590;DHT22;32313;48.722;9.362;2023-04-03T07:01:56;4.30;99.90
46590;DHT22;32313;48.722;9.362;2023-04-03T07:04:24;4.40;99.90
46590;DHT22;32313;48.722;9.362;2023-04-03T07:06:50;4.50;99.90
46590;DHT22;32313;48.722;9.362;2023-04-03T07:09:17;4.50;99.90
46590;DHT22;32313;48.722;9.362;2023-04-03T07:11:42;4.60;99.90
46590;DHT22;32313;48.722;9.362;2023-04-03T07:14:08;4.60;99.90
46590;DHT22;32313;48.722;9.362;2023-04-03T07:16:34;4.60;99.90
46590;DHT22;32313;48.722;9.362;2023-04-03T07:19:01;4.80;99.90
46590;DHT22;32313;48.722;9.362;2023-04-03T07:21:27;5.10;99.90
46590;DHT22;32313;48.722;9.362;2023-04-03T07:23:53;5.10;99.90
46590;DHT22;32313;48.722;9.362;2023-04-03T07:26:19;5.30;99.90
46590;DHT22;32313;48.722;9.362;2023-04-03T07:28:46;5.30;99.90
46590;DHT22;32313;48.722;9.362;2023-04-03T07:31:15;5.50;99.90
46590;DHT22;32313;48.722;9.362;2023-04-03T07:33:42;5.60;99.90
46590;DHT22;32313;48.722;9.362;2023-04-03T07:36:09;5.80;99.90
46590;DHT22;32313;48.722;9.362;2023-04-03T07:38:35;6.00;99.90
46590;DHT22;32313;48.722;9.362;2023-04-03T07:41:02;6.10;99.90
46590;DHT22;32313;48.722;9.362;2023-04-03T07:43:28;6.10;99.90
46590;DHT22;32313;48.722;9.362;2023-04-03T07:45:54;6.20;99.90
46590;DHT22;32313;48.722;9.362;2023-04-03T07:48:21;6.30;99.90
46590;DHT22;32313;48.722;9.362;2023-04-03T07:50:47;6.30;99.90
46590;DHT22;32313;48.722;9.362;2023-04-03T07:53:13;6.50;99.90
46590;DHT22;32313;48.722;9.362;2023-04-03T07:55:39;6.80;99.90
46590;DHT22;32313;48.722;9.362;2023-04-03T07:58:13;7.00;99.90
46590;DHT22;32313;48.722;9.362;2023-04-03T08:00:40;6.90;99.90
46590;DHT22;32313;48.722;9.362;2023-04-03T08:03:07;7.50;99.90
46590;DHT22;32313;48.722;9.362;2023-04-03T08:05:39;8.60;99.90
46590;DHT22;32313;48.722;9.362;2023-04-03T08:08:06;9.20;99.90
46590;DHT22;32313;48.722;9.362;2023-04-03T08:10:32;9.90;99.90
46590;DHT22;32313;48.722;9.362;2023-04-03T08:12:58;9.90;99.90
46590;DHT22;32313;48.722;9.362;2023-04-03T08:15:24;9.30;99.90
46590;DHT22;32313;48.722;9.362;2023-04-03T08:17:50;8.70;99.90
46590;DHT22;32313;48.722;9.362;2023-04-03T08:20:16;8.50;99.90
46590;DHT22;32313;48.722;9.362;2023-04-03T08:22:42;8.30;99.90
46590;DHT22;32313;48.722;9.362;2023-04-03T08:25:08;8.10;99.90
46590;DHT22;32313;48.722;9.362;2023-04-03T08:27:33;8.20;99.90
46590;DHT22;32313;48.722;9.362;2023-04-03T08:29:59;9.20;99.90
46590;DHT22;32313;48.722;9.362;2023-04-03T08:32:25;9.60;99.90
46590;DHT22;32313;48.722;9.362;2023-04-03T08:34:51;10.00;99.90
46590;DHT22;32313;48.722;9.362;2023-04-03T08:37:16;10.10;99.90
46590;DHT22;32313;48.722;9.362;2023-04-03T08:39:43;9.90;99.90
46590;DHT22;32313;48.722;9.362;2023-04-03T08:45:13;9.60;99.90
46590;DHT22;32313;48.722;9.362;2023-04-03T08:47:48;9.70;99.90
46590;DHT22;32313;48.722;9.362;2023-04-03T08:50:20;9.40;99.90
46590;DHT22;32313;48.722;9.362;2023-04-03T08:52:57;9.10;99.90
46590;DHT22;32313;48.722;9.362;2023-04-03T08:55:33;9.00;99.90
46590;DHT22;32313;48.722;9.362;2023-04-03T08:58:03;8.90;99.90
46590;DHT22;32313;48.722;9.362;2023-04-03T09:00:59;9.10;99.90
46590;DHT22;32313;48.722;9.362;2023-04-03T09:03:29;9.20;99.90
46590;DHT22;32313;48.722;9.362;2023-04-03T09:08:55;9.20;99.90
46590;DHT22;32313;48.722;9.362;2023-04-03T09:11:36;9.20;99.90
46590;DHT22;32313;48.722;9.362;2023-04-03T09:17:03;9.30;99.90
46590;DHT22;32313;48.722;9.362;2023-04-03T09:22:00;8.80;99.90
46590;DHT22;32313;48.722;9.362;2023-04-03T09:24:28;8.80;99.90
46590;DHT22;32313;48.722;9.362;2023-04-03T09:27:09;9.00;99.90
46590;DHT22;32313;48.722;9.362;2023-04-03T09:29:39;9.20;99.90
46590;DHT22;32313;48.722;9.362;2023-04-03T09:32:28;9.30;99.90
46590;DHT22;32313;48.722;9.362;2023-04-03T09:34:57;9.50;99.90
46590;DHT22;32313;48.722;9.362;2023-04-03T09:37:37;9.30;99.90
46590;DHT22;32313;48.722;9.362;2023-04-03T09:40:04;9.00;99.90
46590;DHT22;32313;48.722;9.362;2023-04-03T09:42:32;8.90;99.90
46590;DHT22;32313;48.722;9.362;2023-04-03T09:45:01;8.70;99.90
46590;DHT22;32313;48.722;9.362;2023-04-03T09:47:31;8.60;99.90
46590;DHT22;32313;48.722;9.362;2023-04-03T09:50:19;8.50;99.90
46590;DHT22;32313;48.722;9.362;2023-04-03T09:52:47;8.40;99.90
46590;DHT22;32313;48.722;9.362;2023-04-03T09:55:18;8.50;99.90
46590;DHT22;32313;48.722;9.362;2023-04-03T09:57:46;8.70;99.90
46590;DHT22;32313;48.722;9.362;2023-04-03T10:02:50;8.80;99.90
46590;DHT22;32313;48.722;9.362;2023-04-03T10:05:34;8.80;99.90
46590;DHT22;32313;48.722;9.362;2023-04-03T10:10:47;8.50;99.90
46590;DHT22;32313;48.722;9.362;2023-04-03T10:13:18;8.20;99.90
46590;DHT22;32313;48.722;9.362;2023-04-03T10:15:51;8.00;99.90
46590;DHT22;32313;48.722;9.362;2023-04-03T10:20:51;7.80;99.90
46590;DHT22;32313;48.722;9.362;2023-04-03T10:29:09;8.00;99.90
46590;DHT22;32313;48.722;9.362;2023-04-03T10:31:45;8.00;99.90
46590;DHT22;32313;48.722;9.362;2023-04-03T10:34:36;7.70;99.90
46590;DHT22;32313;48.722;9.362;2023-04-03T10:37:29;7.50;99.90
46590;DHT22;32313;48.722;9.362;2023-04-03T10:40:34;7.30;99.90
46590;DHT22;32313;48.722;9.362;2023-04-03T10:43:14;7.00;99.90
46590;DHT22;32313;48.722;9.362;2023-04-03T10:46:08;6.80;99.90
46590;DHT22;32313;48.722;9.362;2023-04-03T10:48:43;6.80;99.90
46590;DHT22;32313;48.722;9.362;2023-04-03T10:54:11;6.90;99.90
46590;DHT22;32313;48.722;9.362;2023-04-03T10:59:15;6.90;99.90
46590;DHT22;32313;48.722;9.362;2023-04-03T11:01:45;6.80;99.90
46590;DHT22;32313;48.722;9.362;2023-04-03T11:04:13;6.70;99.90
46590;DHT22;32313;48.722;9.362;2023-04-03T11:06:57;6.50;99.90
46590;DHT22;32313;48.722;9.362;2023-04-03T11:11:55;6.60;99.90
46590;DHT22;32313;48.722;9.362;2023-04-03T11:14:34;6.70;99.90
46590;DHT22;32313;48.722;9.362;2023-04-03T11:22:41;7.30;99.90
46590;DHT22;32313;48.722;9.362;2023-04-03T11:33:40;7.60;99.90
46590;DHT22;32313;48.722;9.362;2023-04-03T11:38:37;7.50;99.90
46590;DHT22;32313;48.722;9.362;2023-04-03T11:41:07;7.40;99.90
46590;DHT22;32313;48.722;9.362;2023-04-03T11:44:00;7.30;99.90
46590;DHT22;32313;48.722;9.362;2023-04-03T11:46:49;7.40;99.90
46590;DHT22;32313;48.722;9.362;2023-04-03T12:00:53;7.40;99.90
46590;DHT22;32313;48.722;9.362;2023-04-03T12:16:24;9.20;99.10
46590;DHT22;32313;48.722;9.362;2023-04-03T12:24:01;9.70;99.90
46590;DHT22;32313;48.722;9.362;2023-04-03T12:26:41;9.90;99.00
46590;DHT22;32313;48.722;9.362;2023-04-03T12:29:24;9.80;98.00
46590;DHT22;32313;48.722;9.362;2023-04-03T12:32:16;9.60;98.50
46590;DHT22;32313;48.722;9.362;2023-04-03T12:40:19;9.30;97.50
46590;DHT22;32313;48.722;9.362;2023-04-03T12:48:25;9.20;96.90
46590;DHT22;32313;48.722;9.362;2023-04-03T12:50:52;9.20;95.10
46590;DHT22;32313;48.722;9.362;2023-04-03T12:53:35;9.20;95.70
46590;DHT22;32313;48.722;9.362;2023-04-03T12:56:27;9.20;96.10
46590;DHT22;32313;48.722;9.362;2023-04-03T12:58:55;9.40;96.70
46590;DHT22;32313;48.722;9.362;2023-04-03T13:01:24;9.90;97.00
46590;DHT22;32313;48.722;9.362;2023-04-03T13:03:54;10.30;95.40
46590;DHT22;32313;48.722;9.362;2023-04-03T13:06:41;10.20;94.10
46590;DHT22;32313;48.722;9.362;2023-04-03T13:11:44;9.50;95.60
46590;DHT22;32313;48.722;9.362;2023-04-03T13:14:19;9.20;94.90
46590;DHT22;32313;48.722;9.362;2023-04-03T13:17:03;8.90;95.20
46590;DHT22;32313;48.722;9.362;2023-04-03T13:19:31;8.80;95.30
46590;DHT22;32313;48.722;9.362;2023-04-03T13:22:15;8.70;95.70
46590;DHT22;32313;48.722;9.362;2023-04-03T13:24:46;8.90;96.40
46590;DHT22;32313;48.722;9.362;2023-04-03T13:27:13;9.10;95.40
46590;DHT22;32313;48.722;9.362;2023-04-03T13:29:39;9.10;95.70
46590;DHT22;32313;48.722;9.362;2023-04-03T13:32:05;9.20;95.70
46590;DHT22;32313;48.722;9.362;2023-04-03T13:34:42;9.20;95.50
46590;DHT22;32313;48.722;9.362;2023-04-03T13:37:29;9.00;95.10
46590;DHT22;32313;48.722;9.362;2023-04-03T13:42:33;8.60;94.60
46590;DHT22;32313;48.722;9.362;2023-04-03T13:45:22;8.50;94.10
46590;DHT22;32313;48.722;9.362;2023-04-03T13:47:50;8.60;94.70
46590;DHT22;32313;48.722;9.362;2023-04-03T13:50:22;9.10;94.40
46590;DHT22;32313;48.722;9.362;2023-04-03T13:53:02;9.20;94.40
46590;DHT22;32313;48.722;9.362;2023-04-03T13:57:58;9.30;93.40
46590;DHT22;32313;48.722;9.362;2023-04-03T14:00:50;9.20;93.70
46590;DHT22;32313;48.722;9.362;2023-04-03T14:03:28;9.00;93.80
46590;DHT22;32313;48.722;9.362;2023-04-03T14:05:54;9.00;93.50
46590;DHT22;32313;48.722;9.362;2023-04-03T14:08:20;9.00;93.50
46590;DHT22;32313;48.722;9.362;2023-04-03T14:10:46;9.00;93.60
46590;DHT22;32313;48.722;9.362;2023-04-03T14:13:14;9.00;93.40
46590;DHT22;32313;48.722;9.362;2023-04-03T14:15:41;8.80;92.90
46590;DHT22;32313;48.722;9.362;2023-04-03T14:18:14;8.80;92.90
46590;DHT22;32313;48.722;9.362;2023-04-03T14:20:41;8.60;93.00
46590;DHT22;32313;48.722;9.362;2023-04-03T14:23:07;8.60;92.40
46590;DHT22;32313;48.722;9.362;2023-04-03T14:25:33;8.60;92.50
46590;DHT22;32313;48.722;9.362;2023-04-03T14:27:59;9.70;91.70
46590;DHT22;32313;48.722;9.362;2023-04-03T14:30:33;11.30;90.90
46590;DHT22;32313;48.722;9.362;2023-04-03T14:33:00;12.90;88.80
46590;DHT22;32313;48.722;9.362;2023-04-03T14:35:26;12.70;85.50
46590;DHT22;32313;48.722;9.362;2023-04-03T14:37:53;12.30;85.80
46590;DHT22;32313;48.722;9.362;2023-04-03T14:40:23;11.60;83.30
46590;DHT22;32313;48.722;9.362;2023-04-03T14:42:50;10.60;85.00
46590;DHT22;32313;48.722;9.362;2023-04-03T14:45:16;9.90;87.80
46590;DHT22;32313;48.722;9.362;2023-04-03T14:47:52;9.40;90.40
46590;DHT22;32313;48.722;9.362;2023-04-03T14:50:27;9.20;91.20
46590;DHT22;32313;48.722;9.362;2023-04-03T14:52:56;9.00;91.70
46590;DHT22;32313;48.722;9.362;2023-04-03T14:55:24;8.90;91.50
46590;DHT22;32313;48.722;9.362;2023-04-03T14:57:50;8.80;91.60
46590;DHT22;32313;48.722;9.362;2023-04-03T15:00:18;8.70;91.00
46590;DHT22;32313;48.722;9.362;2023-04-03T15:02:45;8.60;91.50
46590;DHT22;32313;48.722;9.362;2023-04-03T15:05:11;8.50;91.60
46590;DHT22;32313;48.722;9.362;2023-04-03T15:07:49;8.50;92.20
46590;DHT22;32313;48.722;9.362;2023-04-03T15:10:21;8.50;92.00
46590;DHT22;32313;48.722;9.362;2023-04-03T15:12:48;8.30;91.70
46590;DHT22;32313;48.722;9.362;2023-04-03T15:15:15;8.30;92.20
46590;DHT22;32313;48.722;9.362;2023-04-03T15:17:42;8.60;92.10
46590;DHT22;32313;48.722;9.362;2023-04-03T15:20:20;8.60;92.00
46590;DHT22;32313;48.722;9.362;2023-04-03T15:22:46;8.50;91.60
46590;DHT22;32313;48.722;9.362;2023-04-03T15:25:12;8.60;91.20
46590;DHT22;32313;48.722;9.362;2023-04-03T15:27:38;8.50;91.00
46590;DHT22;32313;48.722;9.362;2023-04-03T15:30:06;8.40;91.60
46590;DHT22;32313;48.722;9.362;2023-04-03T15:32:33;8.60;92.20
46590;DHT22;32313;48.722;9.362;2023-04-03T15:35:00;9.20;92.00
46590;DHT22;32313;48.722;9.362;2023-04-03T15:37:26;10.60;88.80
46590;DHT22;32313;48.722;9.362;2023-04-03T15:39:52;11.90;89.30
46590;DHT22;32313;48.722;9.362;2023-04-03T15:42:18;13.00;85.20
46590;DHT22;32313;48.722;9.362;2023-04-03T15:44:43;13.80;79.40
46590;DHT22;32313;48.722;9.362;2023-04-03T15:47:09;13.60;79.10
46590;DHT22;32313;48.722;9.362;2023-04-03T15:49:37;12.60;80.10
46590;DHT22;32313;48.722;9.362;2023-04-03T15:52:03;11.40;81.30
46590;DHT22;32313;48.722;9.362;2023-04-03T15:54:29;10.30;82.50
46590;DHT22;32313;48.722;9.362;2023-04-03T15:56:55;9.40;84.70
46590;DHT22;32313;48.722;9.362;2023-04-03T15:59:21;8.70;85.80
46590;DHT22;32313;48.722;9.362;2023-04-03T16:01:48;8.20;86.80
46590;DHT22;32313;48.722;9.362;2023-04-03T16:04:14;7.80;88.20
46590;DHT22;32313;48.722;9.362;2023-04-03T16:06:40;7.60;88.80
46590;DHT22;32313;48.722;9.362;2023-04-03T16:09:06;7.50;89.10
46590;DHT22;32313;48.722;9.362;2023-04-03T16:11:32;7.50;88.40
46590;DHT22;32313;48.722;9.362;2023-04-03T16:14:00;7.50;89.30
46590;DHT22;32313;48.722;9.362;2023-04-03T16:16:26;8.40;88.20
46590;DHT22;32313;48.722;9.362;2023-04-03T16:18:54;9.70;85.80
46590;DHT22;32313;48.722;9.362;2023-04-03T16:21:21;10.50;80.20
46590;DHT22;32313;48.722;9.362;2023-04-03T16:23:47;11.20;80.20
46590;DHT22;32313;48.722;9.362;2023-04-03T16:26:13;11.50;80.70
46590;DHT22;32313;48.722;9.362;2023-04-03T16:28:39;11.50;78.90
46590;DHT22;32313;48.722;9.362;2023-04-03T16:31:06;11.20;79.70
46590;DHT22;32313;48.722;9.362;2023-04-03T16:33:33;11.10;77.10
46590;DHT22;32313;48.722;9.362;2023-04-03T16:35:58;10.60;77.60
46590;DHT22;32313;48.722;9.362;2023-04-03T16:38:24;9.90;78.40
46590;DHT22;32313;48.722;9.362;2023-04-03T16:40:50;9.20;81.20
46590;DHT22;32313;48.722;9.362;2023-04-03T16:43:17;8.80;82.50
46590;DHT22;32313;48.722;9.362;2023-04-03T16:45:43;8.50;82.90
46590;DHT22;32313;48.722;9.362;2023-04-03T16:48:09;8.20;83.70
46590;DHT22;32313;48.722;9.362;2023-04-03T16:50:34;7.90;83.40
46590;DHT22;32313;48.722;9.362;2023-04-03T16:53:00;7.60;84.20
46590;DHT22;32313;48.722;9.362;2023-04-03T16:55:28;7.30;85.20
46590;DHT22;32313;48.722;9.362;2023-04-03T16:57:54;7.10;84.10
46590;DHT22;32313;48.722;9.362;2023-04-03T17:00:20;6.90;85.80
46590;DHT22;32313;48.722;9.362;2023-04-03T17:02:46;6.70;86.20
46590;DHT22;32313;48.722;9.362;2023-04-03T17:05:12;6.50;87.30
46590;DHT22;32313;48.722;9.362;2023-04-03T17:07:38;6.40;87.10
46590;DHT22;32313;48.722;9.362;2023-04-03T17:10:04;6.30;87.90
46590;DHT22;32313;48.722;9.362;2023-04-03T17:12:29;6.20;88.80
46590;DHT22;32313;48.722;9.362;2023-04-03T17:14:55;6.20;88.40
46590;DHT22;32313;48.722;9.362;2023-04-03T17:17:23;6.20;88.20
46590;DHT22;32313;48.722;9.362;2023-04-03T17:19:50;6.20;88.90
46590;DHT22;32313;48.722;9.362;2023-04-03T17:22:16;6.10;88.70
46590;DHT22;32313;48.722;9.362;2023-04-03T17:24:43;6.10;89.10
46590;DHT22;32313;48.722;9.362;2023-04-03T17:27:09;6.00;89.50
46590;DHT22;32313;48.722;9.362;2023-04-03T17:29:34;5.90;89.90
46590;DHT22;32313;48.722;9.362;2023-04-03T17:32:00;5.90;90.00
46590;DHT22;32313;48.722;9.362;2023-04-03T17:34:26;5.80;90.30
46590;DHT22;32313;48.722;9.362;2023-04-03T17:36:52;5.70;90.10
46590;DHT22;32313;48.722;9.362;2023-04-03T17:39:17;5.60;90.40
46590;DHT22;32313;48.722;9.362;2023-04-03T17:41:43;5.60;90.60